Terminal Aerodrome Forecast
Issued by NWS Wilmington, OH

Current Version | Previous Version | Graphics & Text | Print | Product List | Glossary On
Versions: 1 2 3 4 5 6 7 8 9 10 11 12 13 14 15 16 17 18 19 20 21 22 23 24 25 26
000
FTUS41 KILN 181700
TAFILN
TAF
KILN 181728Z 1818/1918 31012G18KT P6SM VCSH OVC025
     FM182000 32010G18KT P6SM -SHRA OVC022
     FM190000 32010G18KT P6SM OVC015
     FM190300 31008KT P6SM BKN015
     FM191000 30004KT P6SM SCT025
     FM191500 28005KT P6SM FEW040=

USA.gov is the U.S. government's official web portal to all federal, state and local government web resources and services.